sensor_id;sensor_type;location;lat;lon;timestamp;P1;durP1;ratioP1;P2;durP2;ratioP2
76296;SDS011;65104;52.994;6.552;2023-02-10T00:02:21;16.75;;;7.88;;
76296;SDS011;65104;52.994;6.552;2023-02-10T00:04:46;15.68;;;7.35;;
76296;SDS011;65104;52.994;6.552;2023-02-10T00:07:12;18.90;;;7.57;;
76296;SDS011;65104;52.994;6.552;2023-02-10T00:09:37;17.67;;;7.50;;
76296;SDS011;65104;52.994;6.552;2023-02-10T00:12:03;17.67;;;7.32;;
76296;SDS011;65104;52.994;6.552;2023-02-10T00:14:29;19.35;;;7.78;;
76296;SDS011;65104;52.994;6.552;2023-02-10T00:16:55;19.25;;;8.13;;
76296;SDS011;65104;52.994;6.552;2023-02-10T00:19:22;20.23;;;7.72;;
76296;SDS011;65104;52.994;6.552;2023-02-10T00:21:49;17.10;;;7.60;;
76296;SDS011;65104;52.994;6.552;2023-02-10T00:24:14;19.85;;;7.50;;
76296;SDS011;65104;52.994;6.552;2023-02-10T00:26:40;19.33;;;8.60;;
76296;SDS011;65104;52.994;6.552;2023-02-10T00:29:05;16.90;;;7.63;;
76296;SDS011;65104;52.994;6.552;2023-02-10T00:31:31;17.00;;;7.35;;
76296;SDS011;65104;52.994;6.552;2023-02-10T00:33:56;17.80;;;7.85;;
76296;SDS011;65104;52.994;6.552;2023-02-10T00:36:21;19.25;;;8.32;;
76296;SDS011;65104;52.994;6.552;2023-02-10T00:38:49;20.83;;;7.90;;
76296;SDS011;65104;52.994;6.552;2023-02-10T00:41:15;19.15;;;7.55;;
76296;SDS011;65104;52.994;6.552;2023-02-10T00:43:43;16.45;;;8.70;;
76296;SDS011;65104;52.994;6.552;2023-02-10T00:46:09;23.45;;;8.02;;
76296;SDS011;65104;52.994;6.552;2023-02-10T00:48:39;21.83;;;8.57;;
76296;SDS011;65104;52.994;6.552;2023-02-10T00:51:04;18.02;;;7.97;;
76296;SDS011;65104;52.994;6.552;2023-02-10T00:53:30;18.50;;;7.90;;
76296;SDS011;65104;52.994;6.552;2023-02-10T00:55:56;19.10;;;7.65;;
76296;SDS011;65104;52.994;6.552;2023-02-10T00:58:21;16.25;;;7.43;;
76296;SDS011;65104;52.994;6.552;2023-02-10T01:00:47;14.52;;;6.93;;
76296;SDS011;65104;52.994;6.552;2023-02-10T01:03:13;16.25;;;8.40;;
76296;SDS011;65104;52.994;6.552;2023-02-10T01:05:38;19.15;;;7.70;;
76296;SDS011;65104;52.994;6.552;2023-02-10T01:08:04;18.63;;;7.28;;
76296;SDS011;65104;52.994;6.552;2023-02-10T01:10:29;19.45;;;7.70;;
76296;SDS011;65104;52.994;6.552;2023-02-10T01:12:59;18.27;;;7.60;;
76296;SDS011;65104;52.994;6.552;2023-02-10T01:15:25;18.17;;;7.55;;
76296;SDS011;65104;52.994;6.552;2023-02-10T01:17:51;18.98;;;7.53;;
76296;SDS011;65104;52.994;6.552;2023-02-10T01:20:17;21.48;;;7.18;;
76296;SDS011;65104;52.994;6.552;2023-02-10T01:22:43;16.98;;;6.70;;
76296;SDS011;65104;52.994;6.552;2023-02-10T01:25:08;14.25;;;6.53;;
76296;SDS011;65104;52.994;6.552;2023-02-10T01:27:33;17.88;;;6.75;;
76296;SDS011;65104;52.994;6.552;2023-02-10T01:29:59;17.70;;;7.15;;
76296;SDS011;65104;52.994;6.552;2023-02-10T01:32:24;21.92;;;7.90;;
76296;SDS011;65104;52.994;6.552;2023-02-10T01:34:50;18.75;;;6.50;;
76296;SDS011;65104;52.994;6.552;2023-02-10T01:37:15;20.20;;;7.60;;
76296;SDS011;65104;52.994;6.552;2023-02-10T01:39:40;14.32;;;6.32;;
76296;SDS011;65104;52.994;6.552;2023-02-10T01:42:06;18.98;;;6.65;;
76296;SDS011;65104;52.994;6.552;2023-02-10T01:46:58;14.50;;;6.47;;
76296;SDS011;65104;52.994;6.552;2023-02-10T01:49:25;14.43;;;5.82;;
76296;SDS011;65104;52.994;6.552;2023-02-10T01:51:55;16.17;;;5.80;;
76296;SDS011;65104;52.994;6.552;2023-02-10T01:54:25;13.48;;;5.30;;
76296;SDS011;65104;52.994;6.552;2023-02-10T01:56:55;11.07;;;5.18;;
76296;SDS011;65104;52.994;6.552;2023-02-10T01:59:22;17.77;;;6.38;;
76296;SDS011;65104;52.994;6.552;2023-02-10T02:01:52;13.85;;;5.57;;
76296;SDS011;65104;52.994;6.552;2023-02-10T02:04:19;15.43;;;5.57;;
76296;SDS011;65104;52.994;6.552;2023-02-10T02:06:46;16.08;;;5.38;;
76296;SDS011;65104;52.994;6.552;2023-02-10T02:09:11;14.30;;;5.30;;
76296;SDS011;65104;52.994;6.552;2023-02-10T02:12:01;10.52;;;4.75;;
76296;SDS011;65104;52.994;6.552;2023-02-10T02:23:13;10.50;;;5.50;;
76296;SDS011;65104;52.994;6.552;2023-02-10T02:31:43;10.38;;;4.80;;
76296;SDS011;65104;52.994;6.552;2023-02-10T02:34:12;14.13;;;5.40;;
76296;SDS011;65104;52.994;6.552;2023-02-10T02:37:05;11.95;;;4.82;;
76296;SDS011;65104;52.994;6.552;2023-02-10T02:39:32;11.63;;;4.70;;
76296;SDS011;65104;52.994;6.552;2023-02-10T02:42:20;11.70;;;4.68;;
76296;SDS011;65104;52.994;6.552;2023-02-10T02:44:46;12.77;;;4.93;;
76296;SDS011;65104;52.994;6.552;2023-02-10T02:47:18;11.43;;;5.60;;
76296;SDS011;65104;52.994;6.552;2023-02-10T02:52:47;12.77;;;5.30;;
76296;SDS011;65104;52.994;6.552;2023-02-10T02:55:36;14.38;;;6.07;;
76296;SDS011;65104;52.994;6.552;2023-02-10T03:00:50;11.32;;;5.65;;
76296;SDS011;65104;52.994;6.552;2023-02-10T03:03:18;14.57;;;6.05;;
76296;SDS011;65104;52.994;6.552;2023-02-10T03:05:44;14.68;;;6.50;;
76296;SDS011;65104;52.994;6.552;2023-02-10T03:08:09;19.40;;;6.30;;
76296;SDS011;65104;52.994;6.552;2023-02-10T03:10:35;16.98;;;6.85;;
76296;SDS011;65104;52.994;6.552;2023-02-10T03:13:00;15.70;;;6.88;;
76296;SDS011;65104;52.994;6.552;2023-02-10T03:15:25;11.88;;;5.90;;
76296;SDS011;65104;52.994;6.552;2023-02-10T03:17:51;13.98;;;6.55;;
76296;SDS011;65104;52.994;6.552;2023-02-10T03:20:16;15.38;;;6.85;;
76296;SDS011;65104;52.994;6.552;2023-02-10T03:22:42;11.95;;;6.63;;
76296;SDS011;65104;52.994;6.552;2023-02-10T03:25:07;18.92;;;6.60;;
76296;SDS011;65104;52.994;6.552;2023-02-10T03:27:33;13.88;;;7.10;;
76296;SDS011;65104;52.994;6.552;2023-02-10T03:29:59;22.08;;;6.65;;
76296;SDS011;65104;52.994;6.552;2023-02-10T03:32:24;16.08;;;7.07;;
76296;SDS011;65104;52.994;6.552;2023-02-10T03:34:50;12.88;;;6.82;;
76296;SDS011;65104;52.994;6.552;2023-02-10T03:37:15;18.27;;;6.95;;
76296;SDS011;65104;52.994;6.552;2023-02-10T03:39:41;19.38;;;7.50;;
76296;SDS011;65104;52.994;6.552;2023-02-10T03:42:06;16.58;;;7.72;;
76296;SDS011;65104;52.994;6.552;2023-02-10T03:44:32;19.95;;;7.25;;
76296;SDS011;65104;52.994;6.552;2023-02-10T03:46:57;17.63;;;6.47;;
76296;SDS011;65104;52.994;6.552;2023-02-10T03:49:23;15.27;;;6.93;;
76296;SDS011;65104;52.994;6.552;2023-02-10T03:51:48;12.98;;;6.47;;
76296;SDS011;65104;52.994;6.552;2023-02-10T03:54:14;12.70;;;6.53;;
76296;SDS011;65104;52.994;6.552;2023-02-10T03:56:39;17.42;;;6.80;;
76296;SDS011;65104;52.994;6.552;2023-02-10T03:59:05;13.80;;;6.80;;
76296;SDS011;65104;52.994;6.552;2023-02-10T04:01:31;18.05;;;7.45;;
76296;SDS011;65104;52.994;6.552;2023-02-10T04:03:56;19.50;;;6.60;;
76296;SDS011;65104;52.994;6.552;2023-02-10T04:06:22;21.38;;;6.80;;
76296;SDS011;65104;52.994;6.552;2023-02-10T04:08:48;16.33;;;7.05;;
76296;SDS011;65104;52.994;6.552;2023-02-10T04:11:13;14.40;;;6.38;;
76296;SDS011;65104;52.994;6.552;2023-02-10T04:13:39;16.85;;;7.47;;
76296;SDS011;65104;52.994;6.552;2023-02-10T04:18:32;12.30;;;6.28;;
76296;SDS011;65104;52.994;6.552;2023-02-10T04:20:58;15.68;;;6.65;;
76296;SDS011;65104;52.994;6.552;2023-02-10T04:23:26;17.60;;;6.72;;
76296;SDS011;65104;52.994;6.552;2023-02-10T04:25:51;14.85;;;7.00;;
76296;SDS011;65104;52.994;6.552;2023-02-10T04:28:17;13.88;;;6.50;;
76296;SDS011;65104;52.994;6.552;2023-02-10T04:30:43;16.55;;;6.75;;
76296;SDS011;65104;52.994;6.552;2023-02-10T04:33:08;13.77;;;6.30;;
76296;SDS011;65104;52.994;6.552;2023-02-10T04:35:33;11.98;;;6.10;;
76296;SDS011;65104;52.994;6.552;2023-02-10T04:37:59;13.45;;;6.78;;
76296;SDS011;65104;52.994;6.552;2023-02-10T04:40:28;13.02;;;6.05;;
76296;SDS011;65104;52.994;6.552;2023-02-10T04:42:53;20.08;;;6.50;;
76296;SDS011;65104;52.994;6.552;2023-02-10T04:45:19;12.30;;;6.57;;
76296;SDS011;65104;52.994;6.552;2023-02-10T04:47:44;18.25;;;6.95;;
76296;SDS011;65104;52.994;6.552;2023-02-10T04:50:09;11.18;;;6.93;;
76296;SDS011;65104;52.994;6.552;2023-02-10T04:52:35;17.50;;;7.55;;
76296;SDS011;65104;52.994;6.552;2023-02-10T04:55:00;19.33;;;6.90;;
76296;SDS011;65104;52.994;6.552;2023-02-10T04:57:25;19.17;;;7.75;;
76296;SDS011;65104;52.994;6.552;2023-02-10T04:59:51;15.63;;;7.03;;
76296;SDS011;65104;52.994;6.552;2023-02-10T05:02:16;15.60;;;7.00;;
76296;SDS011;65104;52.994;6.552;2023-02-10T05:04:42;13.68;;;7.40;;
76296;SDS011;65104;52.994;6.552;2023-02-10T05:07:07;17.58;;;8.68;;
76296;SDS011;65104;52.994;6.552;2023-02-10T05:09:32;19.17;;;7.45;;
76296;SDS011;65104;52.994;6.552;2023-02-10T05:11:58;17.58;;;8.05;;
76296;SDS011;65104;52.994;6.552;2023-02-10T05:14:23;16.67;;;7.60;;
76296;SDS011;65104;52.994;6.552;2023-02-10T05:16:48;19.17;;;7.97;;
76296;SDS011;65104;52.994;6.552;2023-02-10T05:19:14;15.32;;;8.57;;
76296;SDS011;65104;52.994;6.552;2023-02-10T05:21:39;18.55;;;8.27;;
76296;SDS011;65104;52.994;6.552;2023-02-10T05:24:05;17.42;;;8.07;;
76296;SDS011;65104;52.994;6.552;2023-02-10T05:26:30;14.85;;;7.38;;
76296;SDS011;65104;52.994;6.552;2023-02-10T05:28:55;19.25;;;7.30;;
76296;SDS011;65104;52.994;6.552;2023-02-10T05:31:21;14.48;;;7.70;;
76296;SDS011;65104;52.994;6.552;2023-02-10T05:33:46;17.15;;;8.63;;
76296;SDS011;65104;52.994;6.552;2023-02-10T05:36:12;18.77;;;8.00;;
76296;SDS011;65104;52.994;6.552;2023-02-10T05:38:37;24.60;;;8.00;;
76296;SDS011;65104;52.994;6.552;2023-02-10T05:41:02;16.25;;;7.35;;
76296;SDS011;65104;52.994;6.552;2023-02-10T05:43:28;15.30;;;8.07;;
76296;SDS011;65104;52.994;6.552;2023-02-10T05:45:54;14.75;;;7.93;;
76296;SDS011;65104;52.994;6.552;2023-02-10T05:48:19;18.35;;;7.85;;
76296;SDS011;65104;52.994;6.552;2023-02-10T05:50:48;16.23;;;7.90;;
76296;SDS011;65104;52.994;6.552;2023-02-10T05:53:14;14.57;;;7.68;;
76296;SDS011;65104;52.994;6.552;2023-02-10T05:55:40;16.17;;;8.10;;
76296;SDS011;65104;52.994;6.552;2023-02-10T05:58:05;18.02;;;7.90;;
76296;SDS011;65104;52.994;6.552;2023-02-10T06:00:31;15.65;;;7.40;;
76296;SDS011;65104;52.994;6.552;2023-02-10T06:02:56;16.08;;;8.52;;
76296;SDS011;65104;52.994;6.552;2023-02-10T06:05:21;20.15;;;8.13;;
76296;SDS011;65104;52.994;6.552;2023-02-10T06:07:47;16.85;;;9.73;;
76296;SDS011;65104;52.994;6.552;2023-02-10T06:10:12;20.92;;;8.40;;
76296;SDS011;65104;52.994;6.552;2023-02-10T06:12:38;18.15;;;8.45;;
76296;SDS011;65104;52.994;6.552;2023-02-10T06:15:03;17.17;;;8.50;;
76296;SDS011;65104;52.994;6.552;2023-02-10T06:17:29;19.45;;;7.93;;
76296;SDS011;65104;52.994;6.552;2023-02-10T06:19:56;22.52;;;9.38;;
76296;SDS011;65104;52.994;6.552;2023-02-10T06:22:21;17.40;;;8.07;;
76296;SDS011;65104;52.994;6.552;2023-02-10T06:24:47;12.65;;;7.45;;
76296;SDS011;65104;52.994;6.552;2023-02-10T06:27:12;15.82;;;7.38;;
76296;SDS011;65104;52.994;6.552;2023-02-10T06:29:39;16.17;;;6.97;;
76296;SDS011;65104;52.994;6.552;2023-02-10T06:32:04;19.05;;;6.68;;
76296;SDS011;65104;52.994;6.552;2023-02-10T06:34:30;15.93;;;7.60;;
76296;SDS011;65104;52.994;6.552;2023-02-10T06:36:55;20.20;;;7.65;;
76296;SDS011;65104;52.994;6.552;2023-02-10T06:39:20;15.88;;;7.85;;
76296;SDS011;65104;52.994;6.552;2023-02-10T06:41:46;18.65;;;7.80;;
76296;SDS011;65104;52.994;6.552;2023-02-10T06:44:11;17.15;;;7.13;;
76296;SDS011;65104;52.994;6.552;2023-02-10T06:46:36;17.17;;;7.85;;
76296;SDS011;65104;52.994;6.552;2023-02-10T06:49:02;24.98;;;9.02;;
76296;SDS011;65104;52.994;6.552;2023-02-10T06:51:27;16.98;;;8.25;;
76296;SDS011;65104;52.994;6.552;2023-02-10T06:53:53;18.92;;;8.00;;
76296;SDS011;65104;52.994;6.552;2023-02-10T06:56:18;16.55;;;7.70;;
76296;SDS011;65104;52.994;6.552;2023-02-10T06:58:44;16.48;;;7.90;;
76296;SDS011;65104;52.994;6.552;2023-02-10T07:01:10;20.45;;;8.60;;
76296;SDS011;65104;52.994;6.552;2023-02-10T07:03:38;27.63;;;10.95;;
76296;SDS011;65104;52.994;6.552;2023-02-10T07:06:03;17.67;;;8.52;;
76296;SDS011;65104;52.994;6.552;2023-02-10T07:08:29;19.73;;;8.30;;
76296;SDS011;65104;52.994;6.552;2023-02-10T07:10:54;14.30;;;7.38;;
76296;SDS011;65104;52.994;6.552;2023-02-10T07:13:20;19.20;;;7.47;;
76296;SDS011;65104;52.994;6.552;2023-02-10T07:15:45;18.45;;;7.63;;
76296;SDS011;65104;52.994;6.552;2023-02-10T07:18:11;25.02;;;8.77;;
76296;SDS011;65104;52.994;6.552;2023-02-10T07:20:37;18.52;;;7.50;;
76296;SDS011;65104;52.994;6.552;2023-02-10T07:23:02;19.70;;;9.23;;
76296;SDS011;65104;52.994;6.552;2023-02-10T07:25:27;20.95;;;7.93;;
76296;SDS011;65104;52.994;6.552;2023-02-10T07:27:53;20.70;;;8.82;;
76296;SDS011;65104;52.994;6.552;2023-02-10T07:30:21;14.10;;;7.88;;
76296;SDS011;65104;52.994;6.552;2023-02-10T07:32:47;16.92;;;7.65;;
76296;SDS011;65104;52.994;6.552;2023-02-10T07:35:12;17.50;;;8.73;;
76296;SDS011;65104;52.994;6.552;2023-02-10T07:37:38;20.33;;;8.85;;
76296;SDS011;65104;52.994;6.552;2023-02-10T07:40:04;18.27;;;8.00;;
76296;SDS011;65104;52.994;6.552;2023-02-10T07:42:30;19.15;;;9.60;;
76296;SDS011;65104;52.994;6.552;2023-02-10T07:44:57;16.23;;;8.13;;
76296;SDS011;65104;52.994;6.552;2023-02-10T07:47:22;16.83;;;8.27;;
76296;SDS011;65104;52.994;6.552;2023-02-10T07:49:48;16.63;;;8.25;;
76296;SDS011;65104;52.994;6.552;2023-02-10T07:52:13;21.60;;;8.82;;
76296;SDS011;65104;52.994;6.552;2023-02-10T07:54:38;21.85;;;9.27;;
76296;SDS011;65104;52.994;6.552;2023-02-10T07:57:04;13.77;;;7.68;;
76296;SDS011;65104;52.994;6.552;2023-02-10T07:59:29;17.30;;;8.95;;
76296;SDS011;65104;52.994;6.552;2023-02-10T08:01:54;17.58;;;7.95;;
76296;SDS011;65104;52.994;6.552;2023-02-10T08:04:20;18.38;;;8.90;;
76296;SDS011;65104;52.994;6.552;2023-02-10T08:06:45;19.17;;;10.00;;
76296;SDS011;65104;52.994;6.552;2023-02-10T08:09:11;21.63;;;9.65;;
76296;SDS011;65104;52.994;6.552;2023-02-10T08:11:36;21.98;;;9.82;;
76296;SDS011;65104;52.994;6.552;2023-02-10T08:14:02;22.75;;;10.30;;
76296;SDS011;65104;52.994;6.552;2023-02-10T08:16:28;23.42;;;10.38;;
76296;SDS011;65104;52.994;6.552;2023-02-10T08:18:53;27.13;;;10.95;;
76296;SDS011;65104;52.994;6.552;2023-02-10T08:21:19;21.42;;;9.90;;
76296;SDS011;65104;52.994;6.552;2023-02-10T08:23:44;19.70;;;9.90;;
76296;SDS011;65104;52.994;6.552;2023-02-10T08:26:11;22.25;;;11.20;;
76296;SDS011;65104;52.994;6.552;2023-02-10T08:28:38;24.77;;;10.93;;
76296;SDS011;65104;52.994;6.552;2023-02-10T08:31:06;23.30;;;10.73;;
76296;SDS011;65104;52.994;6.552;2023-02-10T08:33:36;19.55;;;9.55;;
76296;SDS011;65104;52.994;6.552;2023-02-10T08:36:06;17.00;;;9.52;;
76296;SDS011;65104;52.994;6.552;2023-02-10T08:38:34;16.85;;;9.52;;
76296;SDS011;65104;52.994;6.552;2023-02-10T08:41:00;22.90;;;10.48;;
76296;SDS011;65104;52.994;6.552;2023-02-10T08:43:26;24.27;;;9.90;;
76296;SDS011;65104;52.994;6.552;2023-02-10T08:45:53;17.58;;;9.13;;
76296;SDS011;65104;52.994;6.552;2023-02-10T08:48:20;23.17;;;10.52;;
76296;SDS011;65104;52.994;6.552;2023-02-10T08:50:46;19.33;;;9.98;;
76296;SDS011;65104;52.994;6.552;2023-02-10T08:53:11;21.63;;;10.40;;
76296;SDS011;65104;52.994;6.552;2023-02-10T08:55:37;21.40;;;9.27;;
76296;SDS011;65104;52.994;6.552;2023-02-10T08:58:03;16.05;;;9.02;;
76296;SDS011;65104;52.994;6.552;2023-02-10T09:00:28;17.70;;;9.32;;
76296;SDS011;65104;52.994;6.552;2023-02-10T09:02:54;18.88;;;9.48;;
76296;SDS011;65104;52.994;6.552;2023-02-10T09:05:19;23.00;;;10.05;;
76296;SDS011;65104;52.994;6.552;2023-02-10T09:07:45;18.63;;;9.65;;
76296;SDS011;65104;52.994;6.552;2023-02-10T09:10:11;28.25;;;11.38;;
76296;SDS011;65104;52.994;6.552;2023-02-10T09:12:38;21.73;;;10.20;;
76296;SDS011;65104;52.994;6.552;2023-02-10T09:15:04;17.65;;;9.23;;
76296;SDS011;65104;52.994;6.552;2023-02-10T09:17:29;19.63;;;10.05;;
76296;SDS011;65104;52.994;6.552;2023-02-10T09:19:55;25.58;;;11.00;;
76296;SDS011;65104;52.994;6.552;2023-02-10T09:22:20;22.30;;;10.20;;
76296;SDS011;65104;52.994;6.552;2023-02-10T09:24:46;20.58;;;10.35;;
76296;SDS011;65104;52.994;6.552;2023-02-10T09:27:13;20.30;;;10.27;;
76296;SDS011;65104;52.994;6.552;2023-02-10T09:29:40;19.17;;;9.55;;
76296;SDS011;65104;52.994;6.552;2023-02-10T09:32:06;21.30;;;10.43;;
76296;SDS011;65104;52.994;6.552;2023-02-10T09:34:32;21.38;;;10.35;;
76296;SDS011;65104;52.994;6.552;2023-02-10T09:36:57;22.13;;;9.73;;
76296;SDS011;65104;52.994;6.552;2023-02-10T09:39:26;26.83;;;10.10;;
76296;SDS011;65104;52.994;6.552;2023-02-10T09:41:57;19.63;;;11.05;;
76296;SDS011;65104;52.994;6.552;2023-02-10T09:44:28;21.98;;;9.82;;
76296;SDS011;65104;52.994;6.552;2023-02-10T09:55:12;19.50;;;9.27;;
76296;SDS011;65104;52.994;6.552;2023-02-10T09:57:40;17.92;;;8.98;;
76296;SDS011;65104;52.994;6.552;2023-02-10T10:00:19;19.02;;;9.13;;
76296;SDS011;65104;52.994;6.552;2023-02-10T10:02:51;22.42;;;9.57;;
76296;SDS011;65104;52.994;6.552;2023-02-10T10:05:21;19.58;;;10.13;;
76296;SDS011;65104;52.994;6.552;2023-02-10T10:08:17;22.40;;;9.75;;
76296;SDS011;65104;52.994;6.552;2023-02-10T10:11:24;20.98;;;8.95;;
76296;SDS011;65104;52.994;6.552;2023-02-10T10:13:55;20.08;;;8.88;;
76296;SDS011;65104;52.994;6.552;2023-02-10T10:19:32;20.55;;;9.15;;
76296;SDS011;65104;52.994;6.552;2023-02-10T10:32:48;20.40;;;8.50;;
76296;SDS011;65104;52.994;6.552;2023-02-10T10:35:29;17.17;;;8.82;;
76296;SDS011;65104;52.994;6.552;2023-02-10T10:38:04;18.70;;;8.35;;
76296;SDS011;65104;52.994;6.552;2023-02-10T10:40:36;23.33;;;10.60;;
76296;SDS011;65104;52.994;6.552;2023-02-10T10:43:02;23.20;;;10.45;;
76296;SDS011;65104;52.994;6.552;2023-02-10T10:48:06;25.33;;;9.88;;
76296;SDS011;65104;52.994;6.552;2023-02-10T10:50:34;21.33;;;8.70;;
76296;SDS011;65104;52.994;6.552;2023-02-10T10:53:02;19.52;;;8.57;;
76296;SDS011;65104;52.994;6.552;2023-02-10T10:55:40;20.13;;;7.28;;
76296;SDS011;65104;52.994;6.552;2023-02-10T10:58:17;16.52;;;8.18;;
76296;SDS011;65104;52.994;6.552;2023-02-10T11:00:55;18.33;;;8.27;;
76296;SDS011;65104;52.994;6.552;2023-02-10T11:03:23;20.40;;;8.05;;
76296;SDS011;65104;52.994;6.552;2023-02-10T11:06:08;17.77;;;8.07;;
76296;SDS011;65104;52.994;6.552;2023-02-10T11:08:43;18.55;;;7.78;;
76296;SDS011;65104;52.994;6.552;2023-02-10T11:11:11;16.80;;;8.40;;
76296;SDS011;65104;52.994;6.552;2023-02-10T11:13:40;19.08;;;8.05;;
76296;SDS011;65104;52.994;6.552;2023-02-10T11:16:17;18.48;;;6.30;;
76296;SDS011;65104;52.994;6.552;2023-02-10T11:19:01;18.75;;;7.25;;
76296;SDS011;65104;52.994;6.552;2023-02-10T11:21:37;16.38;;;6.93;;
76296;SDS011;65104;52.994;6.552;2023-02-10T11:24:22;15.00;;;6.43;;
76296;SDS011;65104;52.994;6.552;2023-02-10T11:26:53;16.70;;;6.75;;
76296;SDS011;65104;52.994;6.552;2023-02-10T11:29:19;14.05;;;5.07;;
76296;SDS011;65104;52.994;6.552;2023-02-10T11:31:45;19.40;;;7.88;;
76296;SDS011;65104;52.994;6.552;2023-02-10T11:36:45;15.55;;;5.88;;
76296;SDS011;65104;52.994;6.552;2023-02-10T11:39:22;10.55;;;4.70;;
76296;SDS011;65104;52.994;6.552;2023-02-10T11:41:51;15.50;;;5.90;;
76296;SDS011;65104;52.994;6.552;2023-02-10T11:46:56;18.20;;;7.07;;
76296;SDS011;65104;52.994;6.552;2023-02-10T11:49:24;13.50;;;6.10;;
76296;SDS011;65104;52.994;6.552;2023-02-10T11:51:53;13.35;;;5.32;;
76296;SDS011;65104;52.994;6.552;2023-02-10T11:54:20;14.65;;;5.75;;
76296;SDS011;65104;52.994;6.552;2023-02-10T11:56:52;15.15;;;5.57;;
76296;SDS011;65104;52.994;6.552;2023-02-10T12:02:55;11.38;;;5.30;;
76296;SDS011;65104;52.994;6.552;2023-02-10T12:07:29;16.48;;;5.88;;
76296;SDS011;65104;52.994;6.552;2023-02-10T12:10:20;12.70;;;5.65;;
76296;SDS011;65104;52.994;6.552;2023-02-10T12:12:57;11.70;;;4.65;;
76296;SDS011;65104;52.994;6.552;2023-02-10T12:34:22;8.13;;;4.35;;
76296;SDS011;65104;52.994;6.552;2023-02-10T12:42:29;11.07;;;4.40;;
76296;SDS011;65104;52.994;6.552;2023-02-10T12:56:40;11.68;;;3.17;;
76296;SDS011;65104;52.994;6.552;2023-02-10T13:02:11;5.35;;;2.70;;
76296;SDS011;65104;52.994;6.552;2023-02-10T13:04:49;9.77;;;2.80;;
76296;SDS011;65104;52.994;6.552;2023-02-10T13:13:07;10.57;;;3.67;;
76296;SDS011;65104;52.994;6.552;2023-02-10T13:15:43;8.43;;;3.75;;
76296;SDS011;65104;52.994;6.552;2023-02-10T13:18:17;9.05;;;3.75;;
76296;SDS011;65104;52.994;6.552;2023-02-10T13:36:51;10.18;;;4.25;;
76296;SDS011;65104;52.994;6.552;2023-02-10T13:39:20;8.32;;;4.20;;
76296;SDS011;65104;52.994;6.552;2023-02-10T13:41:49;8.60;;;3.80;;
76296;SDS011;65104;52.994;6.552;2023-02-10T13:44:29;10.15;;;4.03;;
76296;SDS011;65104;52.994;6.552;2023-02-10T13:49:34;10.13;;;3.22;;
76296;SDS011;65104;52.994;6.552;2023-02-10T13:52:14;4.45;;;2.55;;
76296;SDS011;65104;52.994;6.552;2023-02-10T13:54:51;8.93;;;3.08;;
76296;SDS011;65104;52.994;6.552;2023-02-10T13:57:38;9.85;;;3.15;;
76296;SDS011;65104;52.994;6.552;2023-02-10T14:02:58;10.57;;;3.63;;
76296;SDS011;65104;52.994;6.552;2023-02-10T14:05:37;9.68;;;4.03;;
76296;SDS011;65104;52.994;6.552;2023-02-10T14:08:23;8.88;;;3.30;;
76296;SDS011;65104;52.994;6.552;2023-02-10T14:13:23;10.68;;;2.95;;
76296;SDS011;65104;52.994;6.552;2023-02-10T14:15:58;11.43;;;3.25;;
76296;SDS011;65104;52.994;6.552;2023-02-10T14:18:30;4.93;;;2.95;;
76296;SDS011;65104;52.994;6.552;2023-02-10T14:23:35;9.55;;;3.92;;
76296;SDS011;65104;52.994;6.552;2023-02-10T14:26:07;12.52;;;3.90;;
76296;SDS011;65104;52.994;6.552;2023-02-10T14:28:39;12.25;;;3.83;;
76296;SDS011;65104;52.994;6.552;2023-02-10T14:31:26;15.35;;;3.53;;
76296;SDS011;65104;52.994;6.552;2023-02-10T14:33:54;11.00;;;4.40;;
76296;SDS011;65104;52.994;6.552;2023-02-10T14:36:23;11.32;;;4.20;;
76296;SDS011;65104;52.994;6.552;2023-02-10T14:38:52;7.88;;;3.05;;
76296;SDS011;65104;52.994;6.552;2023-02-10T14:41:28;11.70;;;3.88;;
76296;SDS011;65104;52.994;6.552;2023-02-10T14:46:30;8.02;;;3.33;;
76296;SDS011;65104;52.994;6.552;2023-02-10T14:48:58;11.25;;;3.83;;
76296;SDS011;65104;52.994;6.552;2023-02-10T14:51:28;9.25;;;3.45;;
76296;SDS011;65104;52.994;6.552;2023-02-10T14:53:54;7.57;;;2.58;;
76296;SDS011;65104;52.994;6.552;2023-02-10T14:56:24;5.30;;;2.95;;
76296;SDS011;65104;52.994;6.552;2023-02-10T14:58:52;9.15;;;3.00;;
76296;SDS011;65104;52.994;6.552;2023-02-10T15:01:31;12.82;;;4.55;;
76296;SDS011;65104;52.994;6.552;2023-02-10T15:03:59;9.07;;;3.85;;
76296;SDS011;65104;52.994;6.552;2023-02-10T15:06:27;10.05;;;3.80;;
76296;SDS011;65104;52.994;6.552;2023-02-10T15:09:02;10.30;;;4.32;;
76296;SDS011;65104;52.994;6.552;2023-02-10T15:11:34;11.52;;;3.88;;
76296;SDS011;65104;52.994;6.552;2023-02-10T15:14:26;10.38;;;4.45;;
76296;SDS011;65104;52.994;6.552;2023-02-10T15:16:57;8.57;;;4.50;;
76296;SDS011;65104;52.994;6.552;2023-02-10T15:19:27;12.45;;;4.93;;
76296;SDS011;65104;52.994;6.552;2023-02-10T15:21:52;11.70;;;4.43;;
76296;SDS011;65104;52.994;6.552;2023-02-10T15:24:36;8.38;;;3.72;;
76296;SDS011;65104;52.994;6.552;2023-02-10T15:27:12;8.93;;;4.43;;
76296;SDS011;65104;52.994;6.552;2023-02-10T15:29:40;11.27;;;5.82;;
76296;SDS011;65104;52.994;6.552;2023-02-10T15:32:14;10.60;;;4.40;;
76296;SDS011;65104;52.994;6.552;2023-02-10T15:34:42;7.97;;;5.38;;
76296;SDS011;65104;52.994;6.552;2023-02-10T15:37:13;9.93;;;3.72;;
76296;SDS011;65104;52.994;6.552;2023-02-10T15:39:53;8.55;;;4.13;;
76296;SDS011;65104;52.994;6.552;2023-02-10T15:42:20;10.93;;;4.70;;
76296;SDS011;65104;52.994;6.552;2023-02-10T15:44:58;9.05;;;3.97;;
76296;SDS011;65104;52.994;6.552;2023-02-10T15:47:27;12.43;;;4.78;;
76296;SDS011;65104;52.994;6.552;2023-02-10T15:50:05;10.48;;;4.55;;
76296;SDS011;65104;52.994;6.552;2023-02-10T15:52:32;7.85;;;4.07;;
76296;SDS011;65104;52.994;6.552;2023-02-10T15:55:00;10.23;;;4.25;;
76296;SDS011;65104;52.994;6.552;2023-02-10T15:57:28;8.68;;;3.72;;
76296;SDS011;65104;52.994;6.552;2023-02-10T15:59:53;8.90;;;3.97;;
76296;SDS011;65104;52.994;6.552;2023-02-10T16:02:20;13.73;;;4.88;;
76296;SDS011;65104;52.994;6.552;2023-02-10T16:04:46;9.63;;;4.05;;
76296;SDS011;65104;52.994;6.552;2023-02-10T16:07:13;9.98;;;4.00;;
76296;SDS011;65104;52.994;6.552;2023-02-10T16:09:43;10.82;;;4.22;;
76296;SDS011;65104;52.994;6.552;2023-02-10T16:12:08;15.43;;;9.18;;
76296;SDS011;65104;52.994;6.552;2023-02-10T16:14:34;18.17;;;8.70;;
76296;SDS011;65104;52.994;6.552;2023-02-10T16:16:59;8.48;;;4.53;;
76296;SDS011;65104;52.994;6.552;2023-02-10T16:19:26;12.65;;;7.68;;
76296;SDS011;65104;52.994;6.552;2023-02-10T16:21:53;11.20;;;4.97;;
76296;SDS011;65104;52.994;6.552;2023-02-10T16:24:22;12.57;;;5.32;;
76296;SDS011;65104;52.994;6.552;2023-02-10T16:26:52;11.82;;;4.60;;
76296;SDS011;65104;52.994;6.552;2023-02-10T16:29:19;9.48;;;5.72;;
76296;SDS011;65104;52.994;6.552;2023-02-10T16:31:47;17.27;;;8.20;;
76296;SDS011;65104;52.994;6.552;2023-02-10T16:34:12;9.02;;;6.68;;
76296;SDS011;65104;52.994;6.552;2023-02-10T16:36:38;8.93;;;4.88;;
76296;SDS011;65104;52.994;6.552;2023-02-10T16:39:05;8.20;;;4.78;;
76296;SDS011;65104;52.994;6.552;2023-02-10T16:41:36;11.63;;;5.97;;
76296;SDS011;65104;52.994;6.552;2023-02-10T16:44:02;11.68;;;5.55;;
76296;SDS011;65104;52.994;6.552;2023-02-10T16:46:27;18.58;;;5.53;;
76296;SDS011;65104;52.994;6.552;2023-02-10T16:48:53;12.55;;;5.50;;
76296;SDS011;65104;52.994;6.552;2023-02-10T16:51:18;16.52;;;6.15;;
76296;SDS011;65104;52.994;6.552;2023-02-10T16:53:43;9.45;;;5.60;;
76296;SDS011;65104;52.994;6.552;2023-02-10T16:56:12;12.32;;;5.68;;
76296;SDS011;65104;52.994;6.552;2023-02-10T16:58:40;10.05;;;5.45;;